sensor_id;sensor_type;location;lat;lon;timestamp;pressure;altitude;pressure_sealevel;temperature
24639;BMP180;1641;51.306;12.384;2023-05-20T00:00:02;100894.00;;;13.40
24639;BMP180;1641;51.306;12.384;2023-05-20T00:02:28;100898.00;;;13.70
24639;BMP180;1641;51.306;12.384;2023-05-20T00:04:53;100900.00;;;13.90
24639;BMP180;1641;51.306;12.384;2023-05-20T00:07:18;100892.00;;;13.60
24639;BMP180;1641;51.306;12.384;2023-05-20T00:09:44;100884.00;;;13.60
24639;BMP180;1641;51.306;12.384;2023-05-20T00:12:12;100889.00;;;13.50
24639;BMP180;1641;51.306;12.384;2023-05-20T00:14:38;100890.00;;;13.30
24639;BMP180;1641;51.306;12.384;2023-05-20T00:17:03;100888.00;;;13.20
24639;BMP180;1641;51.306;12.384;2023-05-20T00:19:28;100889.00;;;13.10
24639;BMP180;1641;51.306;12.384;2023-05-20T00:21:53;100885.00;;;13.30
24639;BMP180;1641;51.306;12.384;2023-05-20T00:24:21;100877.00;;;13.30
24639;BMP180;1641;51.306;12.384;2023-05-20T00:26:46;100878.00;;;13.30
24639;BMP180;1641;51.306;12.384;2023-05-20T00:29:12;100867.00;;;13.30
24639;BMP180;1641;51.306;12.384;2023-05-20T00:31:37;100872.00;;;13.40
24639;BMP180;1641;51.306;12.384;2023-05-20T00:34:02;100868.00;;;13.40
24639;BMP180;1641;51.306;12.384;2023-05-20T00:36:27;100863.00;;;13.10
24639;BMP180;1641;51.306;12.384;2023-05-20T00:38:53;100871.00;;;13.30
24639;BMP180;1641;51.306;12.384;2023-05-20T00:41:18;100874.00;;;13.30
24639;BMP180;1641;51.306;12.384;2023-05-20T00:43:43;100837.00;;;13.20
24639;BMP180;1641;51.306;12.384;2023-05-20T00:46:09;100868.00;;;13.20
24639;BMP180;1641;51.306;12.384;2023-05-20T00:48:42;100852.00;;;13.00
24639;BMP180;1641;51.306;12.384;2023-05-20T00:51:10;100862.00;;;13.30
24639;BMP180;1641;51.306;12.384;2023-05-20T00:53:39;100858.00;;;13.80
24639;BMP180;1641;51.306;12.384;2023-05-20T00:56:06;100878.00;;;13.70
24639;BMP180;1641;51.306;12.384;2023-05-20T00:58:32;100877.00;;;14.00
24639;BMP180;1641;51.306;12.384;2023-05-20T01:00:58;100881.00;;;13.80
24639;BMP180;1641;51.306;12.384;2023-05-20T01:03:36;100866.00;;;13.80
24639;BMP180;1641;51.306;12.384;2023-05-20T01:06:02;100874.00;;;13.70
24639;BMP180;1641;51.306;12.384;2023-05-20T01:08:30;100877.00;;;13.90
24639;BMP180;1641;51.306;12.384;2023-05-20T01:11:03;100884.00;;;14.00
24639;BMP180;1641;51.306;12.384;2023-05-20T01:13:36;100893.00;;;13.50
24639;BMP180;1641;51.306;12.384;2023-05-20T01:16:03;100882.00;;;13.50
24639;BMP180;1641;51.306;12.384;2023-05-20T01:18:30;100877.00;;;14.10
24639;BMP180;1641;51.306;12.384;2023-05-20T01:20:57;100866.00;;;13.60
24639;BMP180;1641;51.306;12.384;2023-05-20T01:23:46;100866.00;;;14.20
24639;BMP180;1641;51.306;12.384;2023-05-20T01:26:12;100871.00;;;13.80
24639;BMP180;1641;51.306;12.384;2023-05-20T01:28:38;100867.00;;;14.20
24639;BMP180;1641;51.306;12.384;2023-05-20T01:31:10;100866.00;;;14.50
24639;BMP180;1641;51.306;12.384;2023-05-20T01:33:39;100853.00;;;14.10
24639;BMP180;1641;51.306;12.384;2023-05-20T01:36:06;100857.00;;;14.10
24639;BMP180;1641;51.306;12.384;2023-05-20T01:38:36;100864.00;;;14.20
24639;BMP180;1641;51.306;12.384;2023-05-20T01:41:04;100856.00;;;14.40
24639;BMP180;1641;51.306;12.384;2023-05-20T01:43:30;100856.00;;;14.10
24639;BMP180;1641;51.306;12.384;2023-05-20T01:45:56;100851.00;;;14.20
24639;BMP180;1641;51.306;12.384;2023-05-20T01:48:21;100860.00;;;13.90
24639;BMP180;1641;51.306;12.384;2023-05-20T01:50:46;100858.00;;;13.90
24639;BMP180;1641;51.306;12.384;2023-05-20T01:53:12;100868.00;;;13.80
24639;BMP180;1641;51.306;12.384;2023-05-20T01:55:37;100874.00;;;13.70
24639;BMP180;1641;51.306;12.384;2023-05-20T01:58:03;100864.00;;;13.70
24639;BMP180;1641;51.306;12.384;2023-05-20T02:00:29;100863.00;;;13.60
24639;BMP180;1641;51.306;12.384;2023-05-20T02:02:55;100871.00;;;13.70
24639;BMP180;1641;51.306;12.384;2023-05-20T02:05:23;100865.00;;;13.60
24639;BMP180;1641;51.306;12.384;2023-05-20T02:07:48;100860.00;;;13.80
24639;BMP180;1641;51.306;12.384;2023-05-20T02:10:13;100859.00;;;13.90
24639;BMP180;1641;51.306;12.384;2023-05-20T02:12:39;100860.00;;;13.90
24639;BMP180;1641;51.306;12.384;2023-05-20T02:15:05;100854.00;;;13.70
24639;BMP180;1641;51.306;12.384;2023-05-20T02:17:30;100860.00;;;13.60
24639;BMP180;1641;51.306;12.384;2023-05-20T02:19:55;100860.00;;;13.70
24639;BMP180;1641;51.306;12.384;2023-05-20T02:22:21;100863.00;;;14.00
24639;BMP180;1641;51.306;12.384;2023-05-20T02:24:49;100849.00;;;13.80
24639;BMP180;1641;51.306;12.384;2023-05-20T02:27:14;100844.00;;;13.70
24639;BMP180;1641;51.306;12.384;2023-05-20T02:29:42;100853.00;;;13.60
24639;BMP180;1641;51.306;12.384;2023-05-20T02:32:07;100852.00;;;13.70
24639;BMP180;1641;51.306;12.384;2023-05-20T02:34:33;100854.00;;;13.80
24639;BMP180;1641;51.306;12.384;2023-05-20T02:36:58;100856.00;;;13.60
24639;BMP180;1641;51.306;12.384;2023-05-20T02:39:23;100837.00;;;13.80
24639;BMP180;1641;51.306;12.384;2023-05-20T02:42:01;100856.00;;;13.80
24639;BMP180;1641;51.306;12.384;2023-05-20T02:44:26;100803.00;;;13.80
24639;BMP180;1641;51.306;12.384;2023-05-20T02:46:52;100780.00;;;13.70
24639;BMP180;1641;51.306;12.384;2023-05-20T02:49:17;100860.00;;;13.80
24639;BMP180;1641;51.306;12.384;2023-05-20T02:51:42;100847.00;;;13.70
24639;BMP180;1641;51.306;12.384;2023-05-20T02:54:07;100848.00;;;13.70
24639;BMP180;1641;51.306;12.384;2023-05-20T02:56:33;100862.00;;;13.80
24639;BMP180;1641;51.306;12.384;2023-05-20T02:58:58;100855.00;;;14.00
24639;BMP180;1641;51.306;12.384;2023-05-20T03:01:30;100859.00;;;13.80
24639;BMP180;1641;51.306;12.384;2023-05-20T03:03:55;100848.00;;;13.70
24639;BMP180;1641;51.306;12.384;2023-05-20T03:06:20;100859.00;;;13.90
24639;BMP180;1641;51.306;12.384;2023-05-20T03:08:49;100850.00;;;14.20
24639;BMP180;1641;51.306;12.384;2023-05-20T03:11:14;100855.00;;;14.00
24639;BMP180;1641;51.306;12.384;2023-05-20T03:13:40;100862.00;;;13.90
24639;BMP180;1641;51.306;12.384;2023-05-20T03:16:05;100856.00;;;13.80
24639;BMP180;1641;51.306;12.384;2023-05-20T03:18:36;100827.00;;;13.50
24639;BMP180;1641;51.306;12.384;2023-05-20T03:21:01;100856.00;;;13.40
24639;BMP180;1641;51.306;12.384;2023-05-20T03:23:28;100857.00;;;13.20
24639;BMP180;1641;51.306;12.384;2023-05-20T03:25:53;100860.00;;;13.20
24639;BMP180;1641;51.306;12.384;2023-05-20T03:28:19;100857.00;;;13.30
24639;BMP180;1641;51.306;12.384;2023-05-20T03:30:44;100853.00;;;13.30
24639;BMP180;1641;51.306;12.384;2023-05-20T03:33:09;100866.00;;;13.40
24639;BMP180;1641;51.306;12.384;2023-05-20T03:35:34;100859.00;;;13.30
24639;BMP180;1641;51.306;12.384;2023-05-20T03:38:00;100860.00;;;13.30
24639;BMP180;1641;51.306;12.384;2023-05-20T03:40:26;100860.00;;;13.20
24639;BMP180;1641;51.306;12.384;2023-05-20T03:42:51;100857.00;;;13.40
24639;BMP180;1641;51.306;12.384;2023-05-20T03:45:16;100864.00;;;13.10
24639;BMP180;1641;51.306;12.384;2023-05-20T03:47:41;100796.00;;;12.70
24639;BMP180;1641;51.306;12.384;2023-05-20T03:50:07;100857.00;;;12.70
24639;BMP180;1641;51.306;12.384;2023-05-20T03:52:32;100853.00;;;13.00
24639;BMP180;1641;51.306;12.384;2023-05-20T03:54:59;100855.00;;;13.00
24639;BMP180;1641;51.306;12.384;2023-05-20T03:57:24;100803.00;;;12.90
24639;BMP180;1641;51.306;12.384;2023-05-20T03:59:50;100858.00;;;13.10
24639;BMP180;1641;51.306;12.384;2023-05-20T04:02:15;100856.00;;;12.70
24639;BMP180;1641;51.306;12.384;2023-05-20T04:04:40;100798.00;;;13.00
24639;BMP180;1641;51.306;12.384;2023-05-20T04:07:07;100828.00;;;13.10
24639;BMP180;1641;51.306;12.384;2023-05-20T04:09:32;100863.00;;;13.40
24639;BMP180;1641;51.306;12.384;2023-05-20T04:11:57;100866.00;;;13.60
24639;BMP180;1641;51.306;12.384;2023-05-20T04:14:23;100859.00;;;13.60
24639;BMP180;1641;51.306;12.384;2023-05-20T04:16:48;100857.00;;;13.60
24639;BMP180;1641;51.306;12.384;2023-05-20T04:19:14;100864.00;;;13.80
24639;BMP180;1641;51.306;12.384;2023-05-20T04:21:41;100862.00;;;13.70
24639;BMP180;1641;51.306;12.384;2023-05-20T04:24:07;100858.00;;;13.30
24639;BMP180;1641;51.306;12.384;2023-05-20T04:26:32;100854.00;;;13.80
24639;BMP180;1641;51.306;12.384;2023-05-20T04:28:57;100856.00;;;13.60
24639;BMP180;1641;51.306;12.384;2023-05-20T04:31:23;100858.00;;;13.70
24639;BMP180;1641;51.306;12.384;2023-05-20T04:33:51;100855.00;;;13.90
24639;BMP180;1641;51.306;12.384;2023-05-20T04:36:16;100859.00;;;14.00
24639;BMP180;1641;51.306;12.384;2023-05-20T04:38:41;100844.00;;;14.20
24639;BMP180;1641;51.306;12.384;2023-05-20T04:41:08;100845.00;;;13.90
24639;BMP180;1641;51.306;12.384;2023-05-20T04:43:33;100860.00;;;14.00
24639;BMP180;1641;51.306;12.384;2023-05-20T04:45:59;100869.00;;;14.10
24639;BMP180;1641;51.306;12.384;2023-05-20T04:48:25;100869.00;;;13.80
24639;BMP180;1641;51.306;12.384;2023-05-20T04:50:51;100874.00;;;14.20
24639;BMP180;1641;51.306;12.384;2023-05-20T04:53:17;100883.00;;;14.20
24639;BMP180;1641;51.306;12.384;2023-05-20T04:55:43;100887.00;;;14.20
24639;BMP180;1641;51.306;12.384;2023-05-20T04:58:08;100891.00;;;14.20
24639;BMP180;1641;51.306;12.384;2023-05-20T05:00:40;100887.00;;;14.50
24639;BMP180;1641;51.306;12.384;2023-05-20T05:03:06;100898.00;;;14.20
24639;BMP180;1641;51.306;12.384;2023-05-20T05:05:37;100881.00;;;14.10
24639;BMP180;1641;51.306;12.384;2023-05-20T05:08:09;100883.00;;;13.80
24639;BMP180;1641;51.306;12.384;2023-05-20T05:10:38;100880.00;;;13.30
24639;BMP180;1641;51.306;12.384;2023-05-20T05:13:03;100878.00;;;13.40
24639;BMP180;1641;51.306;12.384;2023-05-20T05:15:31;100862.00;;;13.80
24639;BMP180;1641;51.306;12.384;2023-05-20T05:18:06;100880.00;;;14.10
24639;BMP180;1641;51.306;12.384;2023-05-20T05:20:31;100884.00;;;13.80
24639;BMP180;1641;51.306;12.384;2023-05-20T05:22:56;100879.00;;;13.60
24639;BMP180;1641;51.306;12.384;2023-05-20T05:25:25;100880.00;;;13.90
24639;BMP180;1641;51.306;12.384;2023-05-20T05:27:50;100860.00;;;13.70
24639;BMP180;1641;51.306;12.384;2023-05-20T05:30:15;100835.00;;;14.10
24639;BMP180;1641;51.306;12.384;2023-05-20T05:32:41;100849.00;;;14.00
24639;BMP180;1641;51.306;12.384;2023-05-20T05:35:07;100818.00;;;14.10
24639;BMP180;1641;51.306;12.384;2023-05-20T05:37:32;100820.00;;;14.70
24639;BMP180;1641;51.306;12.384;2023-05-20T05:39:57;100811.00;;;15.00
24639;BMP180;1641;51.306;12.384;2023-05-20T05:42:26;100845.00;;;14.30
24639;BMP180;1641;51.306;12.384;2023-05-20T05:44:51;100844.00;;;14.10
24639;BMP180;1641;51.306;12.384;2023-05-20T05:47:16;100844.00;;;13.80
24639;BMP180;1641;51.306;12.384;2023-05-20T05:49:41;100852.00;;;14.20
24639;BMP180;1641;51.306;12.384;2023-05-20T05:52:07;100857.00;;;14.90
24639;BMP180;1641;51.306;12.384;2023-05-20T05:54:38;100859.00;;;15.10
24639;BMP180;1641;51.306;12.384;2023-05-20T05:57:04;100862.00;;;14.90
24639;BMP180;1641;51.306;12.384;2023-05-20T05:59:29;100857.00;;;14.80
24639;BMP180;1641;51.306;12.384;2023-05-20T06:01:54;100852.00;;;14.70
24639;BMP180;1641;51.306;12.384;2023-05-20T06:04:23;100863.00;;;14.70
24639;BMP180;1641;51.306;12.384;2023-05-20T06:06:48;100861.00;;;14.20
24639;BMP180;1641;51.306;12.384;2023-05-20T06:09:13;100848.00;;;14.40
24639;BMP180;1641;51.306;12.384;2023-05-20T06:11:42;100846.00;;;14.10
24639;BMP180;1641;51.306;12.384;2023-05-20T06:14:11;100854.00;;;14.60
24639;BMP180;1641;51.306;12.384;2023-05-20T06:16:36;100854.00;;;14.40
24639;BMP180;1641;51.306;12.384;2023-05-20T06:19:04;100845.00;;;14.50
24639;BMP180;1641;51.306;12.384;2023-05-20T06:21:31;100833.00;;;15.00
24639;BMP180;1641;51.306;12.384;2023-05-20T06:23:56;100853.00;;;14.80
24639;BMP180;1641;51.306;12.384;2023-05-20T06:26:21;100850.00;;;14.70
24639;BMP180;1641;51.306;12.384;2023-05-20T06:28:47;100849.00;;;14.50
24639;BMP180;1641;51.306;12.384;2023-05-20T06:31:12;100852.00;;;14.90
24639;BMP180;1641;51.306;12.384;2023-05-20T06:33:37;100854.00;;;14.80
24639;BMP180;1641;51.306;12.384;2023-05-20T06:36:08;100863.00;;;14.40
24639;BMP180;1641;51.306;12.384;2023-05-20T06:38:34;100862.00;;;14.40
24639;BMP180;1641;51.306;12.384;2023-05-20T06:41:00;100834.00;;;14.20
24639;BMP180;1641;51.306;12.384;2023-05-20T06:43:28;100863.00;;;14.40
24639;BMP180;1641;51.306;12.384;2023-05-20T06:45:53;100860.00;;;14.40
24639;BMP180;1641;51.306;12.384;2023-05-20T06:48:19;100862.00;;;14.40
24639;BMP180;1641;51.306;12.384;2023-05-20T06:50:44;100861.00;;;14.50
24639;BMP180;1641;51.306;12.384;2023-05-20T06:53:12;100849.00;;;14.70
24639;BMP180;1641;51.306;12.384;2023-05-20T06:55:37;100837.00;;;14.60
24639;BMP180;1641;51.306;12.384;2023-05-20T06:58:03;100860.00;;;14.80
24639;BMP180;1641;51.306;12.384;2023-05-20T07:00:28;100859.00;;;14.50
24639;BMP180;1641;51.306;12.384;2023-05-20T07:02:53;100791.00;;;14.50
24639;BMP180;1641;51.306;12.384;2023-05-20T07:05:18;100846.00;;;14.70
24639;BMP180;1641;51.306;12.384;2023-05-20T07:07:44;100843.00;;;14.80
24639;BMP180;1641;51.306;12.384;2023-05-20T07:10:09;100846.00;;;14.60
24639;BMP180;1641;51.306;12.384;2023-05-20T07:12:35;100835.00;;;14.70
24639;BMP180;1641;51.306;12.384;2023-05-20T07:15:00;100844.00;;;14.70
24639;BMP180;1641;51.306;12.384;2023-05-20T07:17:25;100823.00;;;14.60
24639;BMP180;1641;51.306;12.384;2023-05-20T07:19:51;100833.00;;;14.90
24639;BMP180;1641;51.306;12.384;2023-05-20T07:22:16;100822.00;;;14.80
24639;BMP180;1641;51.306;12.384;2023-05-20T07:24:42;100813.00;;;14.50
24639;BMP180;1641;51.306;12.384;2023-05-20T07:27:07;100786.00;;;14.40
24639;BMP180;1641;51.306;12.384;2023-05-20T07:29:34;100804.00;;;14.60
24639;BMP180;1641;51.306;12.384;2023-05-20T07:32:01;100800.00;;;14.60
24639;BMP180;1641;51.306;12.384;2023-05-20T07:34:26;100821.00;;;14.80
24639;BMP180;1641;51.306;12.384;2023-05-20T07:36:51;100815.00;;;15.30
24639;BMP180;1641;51.306;12.384;2023-05-20T07:39:17;100818.00;;;15.10
24639;BMP180;1641;51.306;12.384;2023-05-20T07:41:42;100809.00;;;15.20
24639;BMP180;1641;51.306;12.384;2023-05-20T07:44:08;100809.00;;;15.40
24639;BMP180;1641;51.306;12.384;2023-05-20T07:46:35;100818.00;;;15.00
24639;BMP180;1641;51.306;12.384;2023-05-20T07:49:02;100809.00;;;15.00
24639;BMP180;1641;51.306;12.384;2023-05-20T07:51:27;100806.00;;;15.10
24639;BMP180;1641;51.306;12.384;2023-05-20T07:53:52;100810.00;;;15.70
24639;BMP180;1641;51.306;12.384;2023-05-20T07:56:18;100795.00;;;15.10
24639;BMP180;1641;51.306;12.384;2023-05-20T07:58:50;100807.00;;;15.00
24639;BMP180;1641;51.306;12.384;2023-05-20T08:01:16;100808.00;;;15.60
24639;BMP180;1641;51.306;12.384;2023-05-20T08:03:41;100802.00;;;15.30
24639;BMP180;1641;51.306;12.384;2023-05-20T08:06:06;100795.00;;;15.30
24639;BMP180;1641;51.306;12.384;2023-05-20T08:08:31;100800.00;;;15.50
24639;BMP180;1641;51.306;12.384;2023-05-20T08:10:57;100801.00;;;15.90
24639;BMP180;1641;51.306;12.384;2023-05-20T08:13:22;100800.00;;;16.60
24639;BMP180;1641;51.306;12.384;2023-05-20T08:15:47;100805.00;;;15.90
24639;BMP180;1641;51.306;12.384;2023-05-20T08:18:14;100741.00;;;15.50
24639;BMP180;1641;51.306;12.384;2023-05-20T08:20:40;100802.00;;;15.40
24639;BMP180;1641;51.306;12.384;2023-05-20T08:23:06;100797.00;;;16.00
24639;BMP180;1641;51.306;12.384;2023-05-20T08:25:31;100796.00;;;15.50
24639;BMP180;1641;51.306;12.384;2023-05-20T08:27:57;100788.00;;;16.40
24639;BMP180;1641;51.306;12.384;2023-05-20T08:30:22;100792.00;;;16.70
24639;BMP180;1641;51.306;12.384;2023-05-20T08:32:47;100787.00;;;16.90
24639;BMP180;1641;51.306;12.384;2023-05-20T08:35:13;100794.00;;;17.00
24639;BMP180;1641;51.306;12.384;2023-05-20T08:37:38;100798.00;;;16.90
24639;BMP180;1641;51.306;12.384;2023-05-20T08:40:03;100753.00;;;17.60
24639;BMP180;1641;51.306;12.384;2023-05-20T08:42:29;100775.00;;;18.50
24639;BMP180;1641;51.306;12.384;2023-05-20T08:44:56;100785.00;;;18.20
24639;BMP180;1641;51.306;12.384;2023-05-20T08:47:22;100799.00;;;18.20
24639;BMP180;1641;51.306;12.384;2023-05-20T08:49:48;100789.00;;;17.80
24639;BMP180;1641;51.306;12.384;2023-05-20T08:52:15;100776.00;;;17.50
24639;BMP180;1641;51.306;12.384;2023-05-20T08:54:46;100776.00;;;17.60
24639;BMP180;1641;51.306;12.384;2023-05-20T08:57:12;100779.00;;;17.70
24639;BMP180;1641;51.306;12.384;2023-05-20T08:59:45;100753.00;;;17.50
24639;BMP180;1641;51.306;12.384;2023-05-20T09:02:13;100779.00;;;18.10
24639;BMP180;1641;51.306;12.384;2023-05-20T09:04:39;100775.00;;;17.90
24639;BMP180;1641;51.306;12.384;2023-05-20T09:07:04;100731.00;;;17.20
24639;BMP180;1641;51.306;12.384;2023-05-20T09:09:32;100767.00;;;17.10
24639;BMP180;1641;51.306;12.384;2023-05-20T09:11:58;100771.00;;;17.50
24639;BMP180;1641;51.306;12.384;2023-05-20T09:14:23;100769.00;;;17.20
24639;BMP180;1641;51.306;12.384;2023-05-20T09:16:51;100752.00;;;17.60
24639;BMP180;1641;51.306;12.384;2023-05-20T09:19:16;100759.00;;;19.00
24639;BMP180;1641;51.306;12.384;2023-05-20T09:21:42;100721.00;;;19.20
24639;BMP180;1641;51.306;12.384;2023-05-20T09:24:07;100764.00;;;17.70
24639;BMP180;1641;51.306;12.384;2023-05-20T09:26:33;100771.00;;;17.20
24639;BMP180;1641;51.306;12.384;2023-05-20T09:28:58;100776.00;;;17.40
24639;BMP180;1641;51.306;12.384;2023-05-20T09:31:27;100760.00;;;18.80
24639;BMP180;1641;51.306;12.384;2023-05-20T09:33:54;100770.00;;;18.90
24639;BMP180;1641;51.306;12.384;2023-05-20T09:36:22;100765.00;;;19.20
24639;BMP180;1641;51.306;12.384;2023-05-20T09:38:50;100761.00;;;19.20
24639;BMP180;1641;51.306;12.384;2023-05-20T09:41:17;100721.00;;;19.00
24639;BMP180;1641;51.306;12.384;2023-05-20T09:43:46;100753.00;;;18.20
24639;BMP180;1641;51.306;12.384;2023-05-20T09:46:12;100741.00;;;18.80
24639;BMP180;1641;51.306;12.384;2023-05-20T09:48:38;100749.00;;;18.40
24639;BMP180;1641;51.306;12.384;2023-05-20T09:51:04;100742.00;;;19.10
24639;BMP180;1641;51.306;12.384;2023-05-20T09:53:30;100740.00;;;19.40
24639;BMP180;1641;51.306;12.384;2023-05-20T09:55:56;100724.00;;;19.90
24639;BMP180;1641;51.306;12.384;2023-05-20T09:58:22;100702.00;;;19.30
24639;BMP180;1641;51.306;12.384;2023-05-20T10:00:48;100730.00;;;19.80
24639;BMP180;1641;51.306;12.384;2023-05-20T10:03:14;100730.00;;;18.50
24639;BMP180;1641;51.306;12.384;2023-05-20T10:05:49;100735.00;;;18.50
24639;BMP180;1641;51.306;12.384;2023-05-20T10:11:26;100728.00;;;18.40
24639;BMP180;1641;51.306;12.384;2023-05-20T10:16:53;100699.00;;;18.00
24639;BMP180;1641;51.306;12.384;2023-05-20T10:19:33;100722.00;;;18.30
24639;BMP180;1641;51.306;12.384;2023-05-20T10:22:03;100719.00;;;18.80
24639;BMP180;1641;51.306;12.384;2023-05-20T10:27:01;100713.00;;;19.60
24639;BMP180;1641;51.306;12.384;2023-05-20T10:29:27;100713.00;;;18.70
24639;BMP180;1641;51.306;12.384;2023-05-20T10:31:52;100703.00;;;19.20
24639;BMP180;1641;51.306;12.384;2023-05-20T10:34:19;100708.00;;;19.00
24639;BMP180;1641;51.306;12.384;2023-05-20T10:37:07;100660.00;;;18.10
24639;BMP180;1641;51.306;12.384;2023-05-20T10:39:31;100685.00;;;18.40
24639;BMP180;1641;51.306;12.384;2023-05-20T10:42:07;100643.00;;;19.00
24639;BMP180;1641;51.306;12.384;2023-05-20T10:44:46;100688.00;;;18.50
24639;BMP180;1641;51.306;12.384;2023-05-20T10:47:12;100669.00;;;18.60
24639;BMP180;1641;51.306;12.384;2023-05-20T10:49:44;100677.00;;;19.50
24639;BMP180;1641;51.306;12.384;2023-05-20T10:52:10;100689.00;;;20.10
24639;BMP180;1641;51.306;12.384;2023-05-20T10:55:00;100659.00;;;20.40
24639;BMP180;1641;51.306;12.384;2023-05-20T10:57:26;100687.00;;;20.00
24639;BMP180;1641;51.306;12.384;2023-05-20T10:59:52;100674.00;;;19.50
24639;BMP180;1641;51.306;12.384;2023-05-20T11:02:19;100655.00;;;19.70
24639;BMP180;1641;51.306;12.384;2023-05-20T11:04:50;100615.00;;;19.10
24639;BMP180;1641;51.306;12.384;2023-05-20T11:07:27;100665.00;;;19.30
24639;BMP180;1641;51.306;12.384;2023-05-20T11:09:56;100655.00;;;19.70
24639;BMP180;1641;51.306;12.384;2023-05-20T11:12:22;100620.00;;;19.60
24639;BMP180;1641;51.306;12.384;2023-05-20T11:14:48;100660.00;;;19.70
24639;BMP180;1641;51.306;12.384;2023-05-20T11:17:14;100665.00;;;20.10
24639;BMP180;1641;51.306;12.384;2023-05-20T11:19:40;100657.00;;;20.00
24639;BMP180;1641;51.306;12.384;2023-05-20T11:22:06;100671.00;;;20.10
24639;BMP180;1641;51.306;12.384;2023-05-20T11:24:32;100665.00;;;20.30
24639;BMP180;1641;51.306;12.384;2023-05-20T11:26:59;100663.00;;;20.20
24639;BMP180;1641;51.306;12.384;2023-05-20T11:29:25;100659.00;;;19.50
24639;BMP180;1641;51.306;12.384;2023-05-20T11:31:51;100659.00;;;19.10
24639;BMP180;1641;51.306;12.384;2023-05-20T11:34:20;100655.00;;;19.70
24639;BMP180;1641;51.306;12.384;2023-05-20T11:36:46;100611.00;;;20.10
24639;BMP180;1641;51.306;12.384;2023-05-20T11:39:13;100649.00;;;20.00
24639;BMP180;1641;51.306;12.384;2023-05-20T11:41:40;100591.00;;;19.70
24639;BMP180;1641;51.306;12.384;2023-05-20T11:44:09;100642.00;;;19.70
24639;BMP180;1641;51.306;12.384;2023-05-20T11:46:44;100622.00;;;20.30
24639;BMP180;1641;51.306;12.384;2023-05-20T11:49:11;100616.00;;;20.70
24639;BMP180;1641;51.306;12.384;2023-05-20T11:51:37;100613.00;;;19.70
24639;BMP180;1641;51.306;12.384;2023-05-20T11:54:04;100588.00;;;20.10
24639;BMP180;1641;51.306;12.384;2023-05-20T11:56:30;100593.00;;;20.50
24639;BMP180;1641;51.306;12.384;2023-05-20T11:58:58;100593.00;;;19.90
24639;BMP180;1641;51.306;12.384;2023-05-20T12:01:24;100609.00;;;19.80
24639;BMP180;1641;51.306;12.384;2023-05-20T12:03:49;100602.00;;;20.30
24639;BMP180;1641;51.306;12.384;2023-05-20T12:06:16;100586.00;;;20.40
24639;BMP180;1641;51.306;12.384;2023-05-20T12:08:41;100600.00;;;20.30
24639;BMP180;1641;51.306;12.384;2023-05-20T12:11:06;100594.00;;;20.20
24639;BMP180;1641;51.306;12.384;2023-05-20T12:13:31;100590.00;;;20.10
24639;BMP180;1641;51.306;12.384;2023-05-20T12:15:57;100598.00;;;20.40
24639;BMP180;1641;51.306;12.384;2023-05-20T12:18:22;100589.00;;;20.80
24639;BMP180;1641;51.306;12.384;2023-05-20T12:20:47;100599.00;;;21.30
24639;BMP180;1641;51.306;12.384;2023-05-20T12:23:12;100587.00;;;21.20
24639;BMP180;1641;51.306;12.384;2023-05-20T12:25:56;100580.00;;;21.40
24639;BMP180;1641;51.306;12.384;2023-05-20T12:28:22;100590.00;;;21.10
24639;BMP180;1641;51.306;12.384;2023-05-20T12:30:50;100589.00;;;20.60
24639;BMP180;1641;51.306;12.384;2023-05-20T12:33:15;100574.00;;;20.70
24639;BMP180;1641;51.306;12.384;2023-05-20T12:35:42;100590.00;;;20.60
24639;BMP180;1641;51.306;12.384;2023-05-20T12:38:08;100586.00;;;20.10
24639;BMP180;1641;51.306;12.384;2023-05-20T12:40:34;100581.00;;;20.80
24639;BMP180;1641;51.306;12.384;2023-05-20T12:43:03;100569.00;;;20.70
24639;BMP180;1641;51.306;12.384;2023-05-20T12:45:29;100568.00;;;21.30
24639;BMP180;1641;51.306;12.384;2023-05-20T12:47:57;100572.00;;;21.50
24639;BMP180;1641;51.306;12.384;2023-05-20T12:50:26;100565.00;;;21.50
24639;BMP180;1641;51.306;12.384;2023-05-20T12:52:51;100547.00;;;21.20
24639;BMP180;1641;51.306;12.384;2023-05-20T12:55:19;100567.00;;;21.10
24639;BMP180;1641;51.306;12.384;2023-05-20T12:57:45;100552.00;;;21.00
24639;BMP180;1641;51.306;12.384;2023-05-20T13:00:11;100550.00;;;21.10
24639;BMP180;1641;51.306;12.384;2023-05-20T13:02:37;100562.00;;;21.20
24639;BMP180;1641;51.306;12.384;2023-05-20T13:05:04;100556.00;;;21.30
24639;BMP180;1641;51.306;12.384;2023-05-20T13:07:33;100545.00;;;21.30
24639;BMP180;1641;51.306;12.384;2023-05-20T13:09:58;100546.00;;;22.00
24639;BMP180;1641;51.306;12.384;2023-05-20T13:12:24;100541.00;;;21.30
24639;BMP180;1641;51.306;12.384;2023-05-20T13:14:49;100541.00;;;21.30
24639;BMP180;1641;51.306;12.384;2023-05-20T13:17:14;100532.00;;;21.20
24639;BMP180;1641;51.306;12.384;2023-05-20T13:19:40;100536.00;;;21.50
24639;BMP180;1641;51.306;12.384;2023-05-20T13:22:06;100522.00;;;21.80
24639;BMP180;1641;51.306;12.384;2023-05-20T13:24:33;100512.00;;;22.30
24639;BMP180;1641;51.306;12.384;2023-05-20T13:27:01;100515.00;;;21.70
24639;BMP180;1641;51.306;12.384;2023-05-20T13:29:27;100526.00;;;21.60
24639;BMP180;1641;51.306;12.384;2023-05-20T13:31:55;100519.00;;;22.00
24639;BMP180;1641;51.306;12.384;2023-05-20T13:34:21;100526.00;;;21.80
24639;BMP180;1641;51.306;12.384;2023-05-20T13:36:46;100524.00;;;21.60
24639;BMP180;1641;51.306;12.384;2023-05-20T13:39:18;100524.00;;;22.10
24639;BMP180;1641;51.306;12.384;2023-05-20T13:41:46;100521.00;;;22.10
24639;BMP180;1641;51.306;12.384;2023-05-20T13:44:11;100515.00;;;22.30
24639;BMP180;1641;51.306;12.384;2023-05-20T13:46:37;100506.00;;;22.20
24639;BMP180;1641;51.306;12.384;2023-05-20T13:49:03;100502.00;;;22.30
24639;BMP180;1641;51.306;12.384;2023-05-20T13:51:29;100504.00;;;22.80
24639;BMP180;1641;51.306;12.384;2023-05-20T13:54:02;100498.00;;;22.00
24639;BMP180;1641;51.306;12.384;2023-05-20T13:56:33;100497.00;;;22.30
24639;BMP180;1641;51.306;12.384;2023-05-20T13:58:58;100494.00;;;22.50
24639;BMP180;1641;51.306;12.384;2023-05-20T14:01:24;100484.00;;;22.60